Time;durP1;ratioP1;P1;durP2;ratioP2;P2;SDS_P1;SDS_P2;PMS_P1;PMS_P2;Temp;Humidity;BMP_temperature;BMP_pressure;BME280_temperature;BME280_humidity;BME280_pressure;Samples;Min_cycle;Max_cycle;Signal;HPM_P1;HPM_P2
2021/12/07 00:01:12;;;;;;;34.23;18.77;;;;;;;;;;5073111;28;20458;-72
2021/12/07 00:03:39;;;;;;;36.47;18.60;;;;;;;;;;5073580;28;20455;-72
2021/12/07 00:06:08;;;;;;;36.77;19.47;;;;;;;;;;5073371;28;20456;-72
2021/12/07 00:08:35;;;;;;;35.93;19.20;;;;;;;;;;5073327;28;20448;-72
2021/12/07 00:11:04;;;;;;;33.07;18.43;;;;;;;;;;5073317;28;20452;-72
2021/12/07 00:13:36;;;;;;;36.60;19.27;;;;;;;;;;5073444;28;20466;-72
2021/12/07 00:16:03;;;;;;;34.40;17.93;;;;;;;;;;5073371;28;20451;-72
2021/12/07 00:18:30;;;;;;;32.93;18.20;;;;;;;;;;5073060;28;20501;-72
2021/12/07 00:20:57;;;;;;;28.57;16.13;;;;;;;;;;5073516;28;20817;-72
2021/12/07 00:23:24;;;;;;;34.37;17.53;;;;;;;;;;5073424;28;20447;-72
2021/12/07 00:25:51;;;;;;;32.10;17.77;;;;;;;;;;5073305;28;20451;-72
2021/12/07 00:28:22;;;;;;;30.57;17.43;;;;;;;;;;5073096;28;20960;-72
2021/12/07 00:30:50;;;;;;;31.63;17.03;;;;;;;;;;5073011;28;20567;-72
2021/12/07 00:33:31;;;;;;;31.57;16.93;;;;;;;;;;5073349;28;20543;-72
2021/12/07 00:35:58;;;;;;;33.77;18.57;;;;;;;;;;5073026;28;20546;-72
2021/12/07 00:38:26;;;;;;;27.20;15.43;;;;;;;;;;5072949;28;20941;-72
2021/12/07 00:41:01;;;;;;;36.83;17.97;;;;;;;;;;5072876;28;20455;-72
2021/12/07 00:43:32;;;;;;;31.20;17.40;;;;;;;;;;5073392;28;20463;-72
2021/12/07 00:46:00;;;;;;;32.10;18.07;;;;;;;;;;5073004;28;20455;-72
2021/12/07 00:48:28;;;;;;;38.70;17.20;;;;;;;;;;5072810;28;20456;-72
2021/12/07 00:50:56;;;;;;;33.50;18.83;;;;;;;;;;5072723;28;20498;-72
2021/12/07 00:53:24;;;;;;;32.50;17.43;;;;;;;;;;5072973;28;20516;-72
2021/12/07 00:55:53;;;;;;;36.90;17.60;;;;;;;;;;5072987;28;20459;-72
2021/12/07 00:58:23;;;;;;;35.60;20.43;;;;;;;;;;5073016;28;20451;-72
2021/12/07 01:00:53;;;;;;;36.33;21.70;;;;;;;;;;5072904;28;20447;-72
2021/12/07 01:03:20;;;;;;;40.63;19.27;;;;;;;;;;5073322;28;20793;-72
2021/12/07 01:05:51;;;;;;;32.33;18.40;;;;;;;;;;5072870;28;20451;-72
2021/12/07 01:08:47;;;;;;;38.30;21.97;;;;;;;;;;5072677;28;20550;-72
2021/12/07 01:24:56;;;;;;;42.20;20.87;;;;;;;;;;5076676;28;20458;-72
2021/12/07 01:27:23;;;;;;;40.77;19.97;;;;;;;;;;5076582;28;20448;-72
2021/12/07 01:30:02;;;;;;;40.00;19.63;;;;;;;;;;5076499;28;20482;-72
2021/12/07 01:32:43;;;;;;;33.50;19.60;;;;;;;;;;5076499;28;20505;-72
2021/12/07 01:35:45;;;;;;;42.50;21.43;;;;;;;;;;5076435;28;20795;-72
2021/12/07 01:38:30;;;;;;;44.27;20.00;;;;;;;;;;5076030;28;20466;-72
2021/12/07 01:41:08;;;;;;;42.17;19.07;;;;;;;;;;5076297;28;20458;-72
2021/12/07 01:52:26;;;;;;;33.53;18.40;;;;;;;;;;5076231;28;20506;-72
2021/12/07 01:58:05;;;;;;;41.17;19.83;;;;;;;;;;5075992;28;20790;-72
2021/12/07 02:00:34;;;;;;;35.60;20.53;;;;;;;;;;5076040;28;20467;-72
2021/12/07 02:03:01;;;;;;;37.13;17.47;;;;;;;;;;5075804;28;20459;-72
2021/12/07 02:05:30;;;;;;;38.50;18.90;;;;;;;;;;5076025;28;20913;-72
2021/12/07 02:07:57;;;;;;;38.07;19.10;;;;;;;;;;5075728;28;20459;-72
2021/12/07 02:10:27;;;;;;;33.33;17.97;;;;;;;;;;5075760;28;20487;-72
2021/12/07 02:13:01;;;;;;;34.27;18.97;;;;;;;;;;5075719;28;20448;-72
2021/12/07 02:15:29;;;;;;;34.37;20.43;;;;;;;;;;5075776;28;20451;-72
2021/12/07 02:17:56;;;;;;;35.30;19.67;;;;;;;;;;5075602;28;20455;-72
2021/12/07 02:20:25;;;;;;;44.93;22.50;;;;;;;;;;5075589;28;20444;-72
2021/12/07 02:22:53;;;;;;;37.37;19.07;;;;;;;;;;5074743;28;20959;-72
2021/12/07 02:25:21;;;;;;;33.17;18.87;;;;;;;;;;5075808;28;20467;-72
2021/12/07 02:27:49;;;;;;;31.07;19.40;;;;;;;;;;5075402;28;20944;-72
2021/12/07 02:30:18;;;;;;;27.57;17.60;;;;;;;;;;5075494;28;20529;-72
2021/12/07 02:32:45;;;;;;;36.97;18.20;;;;;;;;;;5075629;28;20813;-72
2021/12/07 02:35:21;;;;;;;34.27;18.60;;;;;;;;;;5075336;28;20451;-72
2021/12/07 02:37:48;;;;;;;47.47;20.90;;;;;;;;;;5075428;28;20471;-72
2021/12/07 02:40:16;;;;;;;35.30;18.27;;;;;;;;;;5075184;28;20447;-72
2021/12/07 02:42:44;;;;;;;35.37;20.30;;;;;;;;;;5075387;28;20937;-72
2021/12/07 02:45:11;;;;;;;40.03;20.77;;;;;;;;;;5074977;28;20463;-72
2021/12/07 02:47:38;;;;;;;31.77;18.10;;;;;;;;;;5075148;28;20455;-72
2021/12/07 02:50:06;;;;;;;37.40;19.07;;;;;;;;;;5075014;28;20483;-72
2021/12/07 02:52:33;;;;;;;40.27;21.10;;;;;;;;;;5075011;28;20454;-72
2021/12/07 02:55:02;;;;;;;34.10;19.67;;;;;;;;;;5074862;28;20456;-72
2021/12/07 02:57:31;;;;;;;52.37;23.07;;;;;;;;;;5074809;28;20460;-72
2021/12/07 03:00:02;;;;;;;34.23;17.67;;;;;;;;;;5074809;28;20459;-72
2021/12/07 03:02:33;;;;;;;33.07;18.23;;;;;;;;;;5074965;28;20456;-72
2021/12/07 03:05:06;;;;;;;32.80;19.97;;;;;;;;;;5074800;28;20834;-72
2021/12/07 03:07:47;;;;;;;36.47;20.13;;;;;;;;;;5074741;28;20486;-72
2021/12/07 03:26:46;;;;;;;32.53;15.60;;;;;;;;;;5074338;28;20852;-72
2021/12/07 03:29:14;;;;;;;26.13;15.53;;;;;;;;;;5074037;28;20535;-72
2021/12/07 03:31:41;;;;;;;29.13;15.43;;;;;;;;;;5074333;28;20479;-72
2021/12/07 03:34:08;;;;;;;26.90;15.60;;;;;;;;;;5074114;28;20463;-72
2021/12/07 03:36:35;;;;;;;20.50;13.10;;;;;;;;;;5074006;28;20995;-72
2021/12/07 03:39:03;;;;;;;20.97;12.40;;;;;;;;;;5074080;28;20903;-72
2021/12/07 03:41:30;;;;;;;25.60;13.63;;;;;;;;;;5074243;28;20447;-72
2021/12/07 03:43:57;;;;;;;29.90;13.40;;;;;;;;;;5073914;28;20454;-72
2021/12/07 03:46:26;;;;;;;25.50;15.20;;;;;;;;;;5074054;28;20447;-72
2021/12/07 03:48:53;;;;;;;30.43;15.13;;;;;;;;;;5073658;28;20455;-72
2021/12/07 03:51:20;;;;;;;32.60;13.40;;;;;;;;;;5073928;28;20853;-72
2021/12/07 03:53:47;;;;;;;17.50;12.20;;;;;;;;;;5073620;28;20452;-72
2021/12/07 03:56:15;;;;;;;22.37;12.47;;;;;;;;;;5073979;28;20451;-72
2021/12/07 03:58:43;;;;;;;22.70;11.23;;;;;;;;;;5073650;28;20451;-72
2021/12/07 04:01:12;;;;;;;20.10;11.50;;;;;;;;;;5073533;28;20448;-72
2021/12/07 04:03:41;;;;;;;19.00;10.90;;;;;;;;;;5073714;28;20979;-72
2021/12/07 04:06:08;;;;;;;17.20;10.63;;;;;;;;;;5073549;28;20452;-72
2021/12/07 04:08:36;;;;;;;21.20;11.53;;;;;;;;;;5073447;28;20455;-72
2021/12/07 04:11:03;;;;;;;17.20;11.50;;;;;;;;;;5073317;28;20847;-72
2021/12/07 04:13:30;;;;;;;21.23;11.53;;;;;;;;;;5073516;28;20467;-72
2021/12/07 04:15:58;;;;;;;16.93;10.13;;;;;;;;;;5073626;28;20464;-72
2021/12/07 04:18:27;;;;;;;14.07;9.60;;;;;;;;;;5073333;28;21059;-72
2021/12/07 04:21:01;;;;;;;12.60;8.83;;;;;;;;;;5073186;28;20454;-72
2021/12/07 04:23:28;;;;;;;18.63;9.60;;;;;;;;;;5073539;28;20511;-72
2021/12/07 04:25:56;;;;;;;13.53;9.00;;;;;;;;;;5073383;28;20452;-72
2021/12/07 04:28:23;;;;;;;14.13;8.93;;;;;;;;;;5073206;28;20474;-72
2021/12/07 04:30:50;;;;;;;14.83;10.87;;;;;;;;;;5073292;28;20482;-71
2021/12/07 04:33:17;;;;;;;15.63;10.97;;;;;;;;;;5073121;28;20454;-71
2021/12/07 04:35:45;;;;;;;12.13;8.07;;;;;;;;;;5073198;28;20459;-71
2021/12/07 04:38:14;;;;;;;13.90;8.60;;;;;;;;;;5072944;28;20467;-71
2021/12/07 04:40:41;;;;;;;15.07;8.13;;;;;;;;;;5073237;28;20959;-71
2021/12/07 04:43:08;;;;;;;14.37;8.50;;;;;;;;;;5073014;28;20828;-71
2021/12/07 04:45:48;;;;;;;14.70;7.97;;;;;;;;;;5072687;28;20459;-71
2021/12/07 04:48:45;;;;;;;12.93;9.50;;;;;;;;;;5072827;28;20455;-71
2021/12/07 04:59:29;;;;;;;13.03;9.90;;;;;;;;;;5073204;28;20453;-71
2021/12/07 05:01:56;;;;;;;17.53;10.73;;;;;;;;;;5072901;28;20533;-71
2021/12/07 05:04:27;;;;;;;17.80;10.27;;;;;;;;;;5072956;28;20824;-71
2021/12/07 05:07:02;;;;;;;15.30;9.27;;;;;;;;;;5072665;28;20557;-71
2021/12/07 05:09:51;;;;;;;12.60;9.10;;;;;;;;;;5073055;28;20459;-71
2021/12/07 05:12:31;;;;;;;22.33;11.13;;;;;;;;;;5072834;28;20436;-71
2021/12/07 05:15:10;;;;;;;15.00;8.77;;;;;;;;;;5072636;28;20451;-71
2021/12/07 05:39:58;;;;;;;14.30;8.80;;;;;;;;;;5011017;28;20446;-71
2021/12/07 05:42:27;;;;;;;15.70;10.23;;;;;;;;;;5045964;28;20809;-71
2021/12/07 05:44:54;;;;;;;13.80;7.93;;;;;;;;;;5072437;28;20963;-71
2021/12/07 05:47:21;;;;;;;14.30;8.30;;;;;;;;;;5072465;28;20447;-72
2021/12/07 05:49:49;;;;;;;13.10;7.50;;;;;;;;;;5072507;28;20454;-72
2021/12/07 05:52:16;;;;;;;15.10;8.30;;;;;;;;;;5072392;28;20454;-72
2021/12/07 05:54:43;;;;;;;12.90;8.57;;;;;;;;;;5072474;28;20816;-72
2021/12/07 05:57:10;;;;;;;15.43;9.93;;;;;;;;;;5072098;28;20464;-72
2021/12/07 05:59:39;;;;;;;19.17;10.33;;;;;;;;;;5076205;28;20458;-72
2021/12/07 06:02:06;;;;;;;14.00;8.87;;;;;;;;;;5075892;28;20827;-72
2021/12/07 06:04:34;;;;;;;14.57;8.60;;;;;;;;;;5076002;28;20957;-72
2021/12/07 06:07:01;;;;;;;13.23;8.00;;;;;;;;;;5075757;28;20455;-72
2021/12/07 06:09:29;;;;;;;12.30;8.77;;;;;;;;;;5076050;28;20455;-72
2021/12/07 06:11:56;;;;;;;12.13;8.90;;;;;;;;;;5075687;28;21014;-72
2021/12/07 06:14:29;;;;;;;15.20;8.20;;;;;;;;;;5075839;28;20447;-72
2021/12/07 06:16:58;;;;;;;16.83;9.80;;;;;;;;;;5075465;28;20452;-72
2021/12/07 06:19:25;;;;;;;13.23;8.73;;;;;;;;;;5075719;28;20451;-72
2021/12/07 06:21:52;;;;;;;13.00;8.57;;;;;;;;;;5075947;28;20443;-72
2021/12/07 06:24:19;;;;;;;14.63;9.10;;;;;;;;;;5075807;28;20459;-72
2021/12/07 06:26:46;;;;;;;10.77;7.67;;;;;;;;;;5075189;28;20451;-72
2021/12/07 06:29:13;;;;;;;15.07;7.83;;;;;;;;;;5075259;28;20459;-72
2021/12/07 06:31:40;;;;;;;12.83;8.37;;;;;;;;;;5075424;28;20488;-71
2021/12/07 06:34:10;;;;;;;18.40;9.87;;;;;;;;;;5075254;28;20452;-71
2021/12/07 06:36:37;;;;;;;12.60;9.30;;;;;;;;;;5075129;28;20492;-73
2021/12/07 06:39:05;;;;;;;12.73;7.93;;;;;;;;;;5075183;28;20806;-72
2021/12/07 06:41:32;;;;;;;12.47;7.70;;;;;;;;;;5075460;28;20972;-72
2021/12/07 06:43:59;;;;;;;16.60;8.47;;;;;;;;;;5075346;28;20462;-71
2021/12/07 06:46:26;;;;;;;11.37;7.70;;;;;;;;;;5075114;28;20460;-71
2021/12/07 06:48:53;;;;;;;12.10;9.03;;;;;;;;;;5074873;28;20459;-72
2021/12/07 06:51:22;;;;;;;15.00;8.70;;;;;;;;;;5075174;28;20491;-71
2021/12/07 06:53:49;;;;;;;11.90;7.60;;;;;;;;;;5074777;28;20476;-71
2021/12/07 06:56:16;;;;;;;12.57;8.50;;;;;;;;;;5075210;28;20953;-72
2021/12/07 06:58:43;;;;;;;11.50;7.40;;;;;;;;;;5074972;28;20447;-71
2021/12/07 07:01:11;;;;;;;11.63;7.20;;;;;;;;;;5074909;28;20448;-71
2021/12/07 07:03:39;;;;;;;16.17;7.80;;;;;;;;;;5074840;28;20891;-72
2021/12/07 07:06:06;;;;;;;12.00;6.13;;;;;;;;;;5074674;28;20494;-71
2021/12/07 07:08:36;;;;;;;10.70;6.63;;;;;;;;;;5074414;28;20803;-71
2021/12/07 07:11:04;;;;;;;8.30;5.30;;;;;;;;;;5074578;28;21067;-72
2021/12/07 07:13:31;;;;;;;10.57;6.07;;;;;;;;;;5074788;28;20455;-71
2021/12/07 07:15:59;;;;;;;10.43;5.83;;;;;;;;;;5074520;28;20487;-71
2021/12/07 07:18:26;;;;;;;6.27;4.60;;;;;;;;;;5074486;28;20474;-71
2021/12/07 07:20:55;;;;;;;6.97;4.90;;;;;;;;;;5074397;28;20450;-71
2021/12/07 07:23:22;;;;;;;6.77;5.30;;;;;;;;;;5074324;28;20550;-71
2021/12/07 07:25:51;;;;;;;8.83;6.50;;;;;;;;;;5074358;28;20971;-71
2021/12/07 07:28:18;;;;;;;6.83;4.57;;;;;;;;;;5074205;28;20543;-71
2021/12/07 07:30:45;;;;;;;5.47;4.20;;;;;;;;;;5074254;28;20491;-71
2021/12/07 07:33:12;;;;;;;8.30;5.70;;;;;;;;;;5074193;28;20526;-71
2021/12/07 07:35:39;;;;;;;5.60;3.97;;;;;;;;;;5074350;28;20462;-71
2021/12/07 07:38:06;;;;;;;6.43;4.37;;;;;;;;;;5073902;28;20464;-71
2021/12/07 07:40:33;;;;;;;8.17;4.10;;;;;;;;;;5074163;28;20452;-71
2021/12/07 07:43:02;;;;;;;6.47;5.20;;;;;;;;;;5073984;28;20451;-71
2021/12/07 07:45:29;;;;;;;5.90;3.87;;;;;;;;;;5074050;28;20828;-72
2021/12/07 07:47:56;;;;;;;4.53;3.53;;;;;;;;;;5073805;28;20463;-72
2021/12/07 07:50:24;;;;;;;5.07;3.30;;;;;;;;;;5074067;28;20513;-71
2021/12/07 07:52:51;;;;;;;4.53;3.33;;;;;;;;;;5073805;28;20586;-71
2021/12/07 07:55:18;;;;;;;4.33;2.90;;;;;;;;;;5073853;28;20452;-71
2021/12/07 07:57:45;;;;;;;7.33;3.43;;;;;;;;;;5073810;28;20459;-71
2021/12/07 08:00:16;;;;;;;5.90;3.10;;;;;;;;;;5073678;28;20892;-72
2021/12/07 08:02:44;;;;;;;4.30;3.53;;;;;;;;;;5073690;28;20542;-71
2021/12/07 08:05:11;;;;;;;6.73;4.17;;;;;;;;;;5073474;28;20460;-72
2021/12/07 08:07:39;;;;;;;7.03;3.23;;;;;;;;;;5073298;28;20463;-72
2021/12/07 08:10:08;;;;;;;5.83;3.77;;;;;;;;;;5073276;28;20554;-72
2021/12/07 08:12:35;;;;;;;6.03;3.07;;;;;;;;;;5071753;28;20499;-72
2021/12/07 08:15:02;;;;;;;3.70;2.37;;;;;;;;;;5073388;28;20467;-72
2021/12/07 08:17:30;;;;;;;3.30;2.43;;;;;;;;;;5073214;28;20455;-72
2021/12/07 08:19:58;;;;;;;4.27;3.40;;;;;;;;;;5072646;28;20454;-72
2021/12/07 08:22:25;;;;;;;4.60;2.80;;;;;;;;;;5073374;28;20448;-71
2021/12/07 08:24:52;;;;;;;4.37;2.80;;;;;;;;;;5073019;28;20455;-72
2021/12/07 08:27:19;;;;;;;4.97;3.03;;;;;;;;;;5073096;28;20447;-72
2021/12/07 08:29:47;;;;;;;9.50;4.40;;;;;;;;;;5073251;28;20466;-72
2021/12/07 08:32:14;;;;;;;4.97;3.83;;;;;;;;;;5072954;28;20487;-72
2021/12/07 08:34:42;;;;;;;6.17;3.43;;;;;;;;;;5073019;28;20458;-71
2021/12/07 08:37:09;;;;;;;5.10;3.30;;;;;;;;;;5072829;28;20474;-71
2021/12/07 08:39:37;;;;;;;5.10;3.77;;;;;;;;;;5073205;28;20466;-71
2021/12/07 08:42:06;;;;;;;3.60;2.60;;;;;;;;;;5072978;28;20458;-71
2021/12/07 08:44:34;;;;;;;4.00;2.67;;;;;;;;;;5072799;28;20517;-71
2021/12/07 08:47:01;;;;;;;7.20;5.13;;;;;;;;;;5072552;28;20456;-71
2021/12/07 08:49:28;;;;;;;4.20;3.80;;;;;;;;;;5073026;28;20452;-71
2021/12/07 08:51:56;;;;;;;5.73;4.23;;;;;;;;;;5072657;28;20488;-72
2021/12/07 08:54:33;;;;;;;8.03;2.50;;;;;;;;;;5072691;28;20948;-72
2021/12/07 08:59:45;;;;;;;2.90;2.40;;;;;;;;;;5072943;28;20428;-71
2021/12/07 09:02:14;;;;;;;3.73;2.70;;;;;;;;;;5073011;28;20490;-71
2021/12/07 09:04:41;;;;;;;3.80;2.70;;;;;;;;;;5072656;28;20842;-72
2021/12/07 09:07:09;;;;;;;3.63;2.50;;;;;;;;;;5072340;28;20467;-72
2021/12/07 09:09:37;;;;;;;3.87;2.77;;;;;;;;;;5072918;28;20949;-71
2021/12/07 09:12:04;;;;;;;2.50;2.30;;;;;;;;;;5072651;28;20991;-72
2021/12/07 09:14:32;;;;;;;4.37;2.33;;;;;;;;;;5064203;28;20981;-72
2021/12/07 09:16:59;;;;;;;2.70;2.23;;;;;;;;;;5052285;28;20457;-71
2021/12/07 09:19:27;;;;;;;11.43;5.17;;;;;;;;;;5052441;28;20463;-71
2021/12/07 09:21:54;;;;;;;4.57;2.63;;;;;;;;;;5062427;28;20835;-71
2021/12/07 09:24:23;;;;;;;4.67;1.90;;;;;;;;;;5070710;28;20464;-71
2021/12/07 09:26:50;;;;;;;3.00;2.37;;;;;;;;;;5070772;28;21016;-71
2021/12/07 09:29:17;;;;;;;2.73;2.23;;;;;;;;;;5070302;28;20470;-71
2021/12/07 09:31:44;;;;;;;3.30;2.00;;;;;;;;;;5071722;28;20491;-72
2021/12/07 09:34:12;;;;;;;3.87;1.70;;;;;;;;;;5074719;28;20506;-72
2021/12/07 09:36:39;;;;;;;2.47;2.10;;;;;;;;;;5074562;28;20507;-72
2021/12/07 09:39:07;;;;;;;3.50;2.13;;;;;;;;;;5074878;28;20470;-72
2021/12/07 09:41:36;;;;;;;3.67;2.80;;;;;;;;;;5074929;28;20467;-72
2021/12/07 09:44:03;;;;;;;3.50;2.37;;;;;;;;;;5074628;28;20471;-73
2021/12/07 09:46:30;;;;;;;4.07;2.30;;;;;;;;;;5074625;28;20851;-72
2021/12/07 09:48:57;;;;;;;8.00;3.00;;;;;;;;;;5074409;28;20885;-72
2021/12/07 09:51:26;;;;;;;2.17;1.97;;;;;;;;;;5074877;28;20474;-72
2021/12/07 09:53:53;;;;;;;6.30;3.43;;;;;;;;;;5074106;28;20479;-72
2021/12/07 09:56:21;;;;;;;4.90;2.40;;;;;;;;;;5074495;28;20464;-72
2021/12/07 09:58:51;;;;;;;3.80;2.90;;;;;;;;;;5074282;28;20467;-72
2021/12/07 10:01:18;;;;;;;2.27;2.07;;;;;;;;;;5074517;28;20471;-71
2021/12/07 10:03:48;;;;;;;2.40;1.97;;;;;;;;;;5074238;28;20815;-72
2021/12/07 10:06:15;;;;;;;2.70;2.00;;;;;;;;;;5074345;28;20467;-72
2021/12/07 10:08:43;;;;;;;3.23;2.87;;;;;;;;;;5074274;28;21280;-72
2021/12/07 10:11:11;;;;;;;3.90;2.83;;;;;;;;;;5074561;28;20472;-71
2021/12/07 10:13:39;;;;;;;2.63;1.87;;;;;;;;;;5075864;28;20815;-71
2021/12/07 10:16:09;;;;;;;3.40;2.17;;;;;;;;;;5075764;28;20455;-71
2021/12/07 10:18:38;;;;;;;3.57;1.90;;;;;;;;;;5075620;28;20824;-72
2021/12/07 10:21:09;;;;;;;4.73;2.60;;;;;;;;;;5075483;28;20864;-72
2021/12/07 10:23:38;;;;;;;2.73;2.00;;;;;;;;;;5075563;28;20513;-72
2021/12/07 10:26:07;;;;;;;3.70;1.87;;;;;;;;;;5075619;28;20444;-71
2021/12/07 10:28:36;;;;;;;2.27;1.90;;;;;;;;;;5075472;28;20456;-71
2021/12/07 10:31:05;;;;;;;3.03;2.13;;;;;;;;;;5075359;28;20459;-71
2021/12/07 10:33:35;;;;;;;3.13;2.00;;;;;;;;;;5075486;28;20864;-71
2021/12/07 10:36:10;;;;;;;3.53;2.30;;;;;;;;;;5075316;28;20462;-72
2021/12/07 10:38:38;;;;;;;2.50;2.00;;;;;;;;;;5075221;28;20546;-72
2021/12/07 10:41:07;;;;;;;4.50;2.33;;;;;;;;;;5075127;28;20945;-72
2021/12/07 10:43:41;;;;;;;4.03;2.30;;;;;;;;;;5074653;28;20820;-72
2021/12/07 10:46:23;;;;;;;7.63;2.47;;;;;;;;;;5075151;28;20937;-72
2021/12/07 10:48:52;;;;;;;3.90;1.90;;;;;;;;;;5075138;28;20447;-72
2021/12/07 10:51:19;;;;;;;3.60;2.10;;;;;;;;;;5075197;28;20450;-72
2021/12/07 10:53:53;;;;;;;2.50;1.90;;;;;;;;;;5075046;28;20487;-71
2021/12/07 10:56:30;;;;;;;2.07;1.70;;;;;;;;;;5075069;28;20457;-72
2021/12/07 10:59:01;;;;;;;2.10;1.80;;;;;;;;;;5074819;28;20447;-72
2021/12/07 11:01:32;;;;;;;5.00;2.03;;;;;;;;;;5075056;28;20455;-72
2021/12/07 11:04:14;;;;;;;2.80;2.00;;;;;;;;;;5074781;28;20463;-72
2021/12/07 11:06:56;;;;;;;11.27;2.43;;;;;;;;;;5074485;28;20443;-72
2021/12/07 11:09:24;;;;;;;5.20;2.20;;;;;;;;;;5073266;28;20467;-72
2021/12/07 11:12:06;;;;;;;2.90;2.20;;;;;;;;;;5074173;28;21003;-71
2021/12/07 11:14:39;;;;;;;3.03;2.30;;;;;;;;;;5074537;28;20456;-71
2021/12/07 11:17:07;;;;;;;3.40;1.90;;;;;;;;;;5074424;28;20452;-71
2021/12/07 11:19:35;;;;;;;3.40;2.37;;;;;;;;;;5074532;28;20455;-71
2021/12/07 11:22:02;;;;;;;5.60;2.00;;;;;;;;;;5074459;28;20516;-71
2021/12/07 11:24:36;;;;;;;4.57;2.53;;;;;;;;;;5074539;28;20455;-71
2021/12/07 11:29:58;;;;;;;3.47;2.20;;;;;;;;;;5074421;28;20427;-71
2021/12/07 11:32:25;;;;;;;3.20;1.73;;;;;;;;;;5074330;28;20487;-71
2021/12/07 11:34:52;;;;;;;3.77;2.50;;;;;;;;;;5074246;28;20971;-71
2021/12/07 11:37:22;;;;;;;2.97;2.10;;;;;;;;;;5073847;28;20468;-71
2021/12/07 11:39:53;;;;;;;2.90;2.13;;;;;;;;;;5074156;28;20451;-71
2021/12/07 11:42:21;;;;;;;9.03;3.17;;;;;;;;;;5074111;28;20452;-71
2021/12/07 11:44:50;;;;;;;2.40;1.97;;;;;;;;;;5074050;28;20451;-72
2021/12/07 11:47:17;;;;;;;6.50;2.90;;;;;;;;;;5073780;28;20969;-71
2021/12/07 11:49:44;;;;;;;2.80;2.00;;;;;;;;;;5074000;28;20960;-71
2021/12/07 11:52:12;;;;;;;2.87;2.57;;;;;;;;;;5073816;28;20483;-72
2021/12/07 11:54:40;;;;;;;3.20;2.20;;;;;;;;;;5073514;28;20452;-71
2021/12/07 11:57:10;;;;;;;3.50;2.53;;;;;;;;;;5073173;28;20466;-72
2021/12/07 11:59:37;;;;;;;6.20;2.77;;;;;;;;;;5073719;28;20448;-72
2021/12/07 12:02:05;;;;;;;5.00;3.40;;;;;;;;;;5073654;28;20443;-72
2021/12/07 12:04:32;;;;;;;6.90;2.70;;;;;;;;;;5073605;28;20466;-73
2021/12/07 12:07:00;;;;;;;3.90;2.50;;;;;;;;;;5073506;28;20460;-72
2021/12/07 12:09:28;;;;;;;4.07;2.50;;;;;;;;;;5073563;28;20447;-72
2021/12/07 12:12:00;;;;;;;2.90;2.60;;;;;;;;;;5073389;28;20460;-72
2021/12/07 12:14:51;;;;;;;6.77;2.20;;;;;;;;;;5073951;28;20452;-73
2021/12/07 12:17:25;;;;;;;4.97;3.77;;;;;;;;;;5062833;28;20462;-73
2021/12/07 12:20:05;;;;;;;6.70;2.43;;;;;;;;;;5073648;28;20452;-73
2021/12/07 12:22:36;;;;;;;3.00;1.90;;;;;;;;;;5073473;28;20440;-72
2021/12/07 12:25:07;;;;;;;4.73;2.70;;;;;;;;;;5073227;28;20830;-73
2021/12/07 12:27:35;;;;;;;4.23;2.90;;;;;;;;;;5073112;28;20451;-72
2021/12/07 12:30:05;;;;;;;3.70;2.93;;;;;;;;;;5073250;28;20448;-72
2021/12/07 12:32:36;;;;;;;4.20;3.20;;;;;;;;;;5073292;28;20495;-73
2021/12/07 12:35:03;;;;;;;3.17;2.70;;;;;;;;;;5073209;28;20467;-73
2021/12/07 12:37:32;;;;;;;9.53;2.90;;;;;;;;;;5073018;28;20890;-73
2021/12/07 12:40:00;;;;;;;8.10;2.10;;;;;;;;;;5073281;28;20546;-73
2021/12/07 12:42:33;;;;;;;2.80;2.30;;;;;;;;;;5073167;28;20806;-73
2021/12/07 12:45:01;;;;;;;2.60;2.37;;;;;;;;;;5072969;28;20448;-73
2021/12/07 12:47:30;;;;;;;4.63;2.93;;;;;;;;;;5072944;28;20456;-73
2021/12/07 12:50:10;;;;;;;5.40;3.10;;;;;;;;;;5073025;28;20479;-73
2021/12/07 12:52:41;;;;;;;5.03;2.37;;;;;;;;;;5073028;28;20490;-73
2021/12/07 12:55:27;;;;;;;2.33;2.13;;;;;;;;;;5073005;28;20452;-73
2021/12/07 12:57:54;;;;;;;5.50;2.50;;;;;;;;;;5072860;28;20456;-73
2021/12/07 13:00:22;;;;;;;12.53;2.60;;;;;;;;;;5073089;28;20905;-73
2021/12/07 13:02:51;;;;;;;4.50;2.67;;;;;;;;;;5072901;28;20447;-73
2021/12/07 13:05:34;;;;;;;2.97;2.23;;;;;;;;;;5071703;28;20471;-73
2021/12/07 13:08:12;;;;;;;2.43;1.87;;;;;;;;;;5075783;28;20477;-73
2021/12/07 13:10:55;;;;;;;4.80;2.27;;;;;;;;;;5077208;28;20482;-73
2021/12/07 13:13:26;;;;;;;4.00;2.53;;;;;;;;;;5076989;28;20484;-73
2021/12/07 13:15:53;;;;;;;3.63;2.90;;;;;;;;;;5076823;28;20451;-73
2021/12/07 13:18:21;;;;;;;3.20;2.70;;;;;;;;;;5077099;28;20455;-73
2021/12/07 13:20:50;;;;;;;6.10;3.13;;;;;;;;;;5076946;28;20550;-73
2021/12/07 13:23:18;;;;;;;3.40;2.77;;;;;;;;;;5076677;28;20929;-73
2021/12/07 13:25:46;;;;;;;3.53;2.70;;;;;;;;;;5076755;28;20447;-73
2021/12/07 13:28:24;;;;;;;3.90;2.40;;;;;;;;;;5076484;28;20477;-73
2021/12/07 13:30:53;;;;;;;2.80;2.07;;;;;;;;;;5076573;28;20479;-73
2021/12/07 13:33:22;;;;;;;5.60;2.63;;;;;;;;;;5076503;28;20483;-73
2021/12/07 13:35:51;;;;;;;3.50;2.20;;;;;;;;;;5076505;28;20462;-73
2021/12/07 13:38:19;;;;;;;4.80;3.03;;;;;;;;;;5076444;28;20455;-73
2021/12/07 13:40:46;;;;;;;5.90;2.67;;;;;;;;;;5076511;28;20447;-73
2021/12/07 13:43:28;;;;;;;11.93;3.07;;;;;;;;;;5076333;28;20483;-73
2021/12/07 13:46:07;;;;;;;11.37;2.90;;;;;;;;;;5076152;28;20944;-73
2021/12/07 13:48:34;;;;;;;4.37;2.70;;;;;;;;;;5076203;28;20447;-73
2021/12/07 13:51:03;;;;;;;4.93;3.10;;;;;;;;;;5076166;28;20451;-73
2021/12/07 13:53:30;;;;;;;4.93;3.83;;;;;;;;;;5076315;28;20487;-73
2021/12/07 13:55:57;;;;;;;6.40;3.07;;;;;;;;;;5076099;28;20455;-73
2021/12/07 13:58:25;;;;;;;5.20;3.90;;;;;;;;;;5076103;28;20538;-73
2021/12/07 14:00:52;;;;;;;5.97;3.77;;;;;;;;;;5076140;28;20451;-73
2021/12/07 14:03:20;;;;;;;4.60;2.80;;;;;;;;;;5075914;28;20450;-73
2021/12/07 14:05:47;;;;;;;9.63;4.57;;;;;;;;;;5076008;28;20471;-72
2021/12/07 14:08:17;;;;;;;7.03;4.37;;;;;;;;;;5075885;28;20451;-72
2021/12/07 14:10:45;;;;;;;6.17;3.87;;;;;;;;;;5075906;28;20447;-72
2021/12/07 14:13:12;;;;;;;8.80;5.57;;;;;;;;;;5075764;28;20837;-72
2021/12/07 14:15:41;;;;;;;41.00;14.70;;;;;;;;;;5075735;28;20456;-72
2021/12/07 14:18:10;;;;;;;26.50;10.53;;;;;;;;;;5074450;28;20846;-72
2021/12/07 14:20:38;;;;;;;14.43;7.03;;;;;;;;;;5075733;28;20448;-72
2021/12/07 14:23:17;;;;;;;9.53;5.87;;;;;;;;;;5075582;28;20448;-72
2021/12/07 14:25:52;;;;;;;12.10;4.00;;;;;;;;;;5075752;28;20456;-72
2021/12/07 14:28:24;;;;;;;14.73;5.60;;;;;;;;;;5075417;28;20459;-72
2021/12/07 14:30:51;;;;;;;7.73;5.07;;;;;;;;;;5075649;28;20434;-72
2021/12/07 14:33:18;;;;;;;9.97;4.97;;;;;;;;;;5075421;28;20483;-72
2021/12/07 14:35:45;;;;;;;11.93;5.60;;;;;;;;;;5075621;28;20796;-72
2021/12/07 14:38:12;;;;;;;7.53;4.50;;;;;;;;;;5075060;28;20467;-72
2021/12/07 14:40:43;;;;;;;7.20;5.77;;;;;;;;;;5075370;28;20455;-72
2021/12/07 14:43:10;;;;;;;9.03;4.80;;;;;;;;;;5075185;28;20444;-72
2021/12/07 14:45:38;;;;;;;7.87;5.27;;;;;;;;;;5075213;28;20532;-72
2021/12/07 14:48:05;;;;;;;7.63;4.80;;;;;;;;;;5075053;28;20489;-72
2021/12/07 14:50:33;;;;;;;6.93;4.83;;;;;;;;;;5075325;28;20451;-72
2021/12/07 14:53:00;;;;;;;16.80;9.83;;;;;;;;;;5074812;28;20479;-72
2021/12/07 14:55:27;;;;;;;16.80;9.10;;;;;;;;;;5075122;28;20983;-72
2021/12/07 14:57:55;;;;;;;11.97;6.80;;;;;;;;;;5074829;28;20452;-72
2021/12/07 15:00:22;;;;;;;9.53;5.17;;;;;;;;;;5073759;28;20463;-72
2021/12/07 15:02:50;;;;;;;10.33;6.20;;;;;;;;;;5075138;28;20459;-72
2021/12/07 15:05:17;;;;;;;13.80;5.80;;;;;;;;;;5075061;28;20546;-72
2021/12/07 15:07:44;;;;;;;11.80;6.40;;;;;;;;;;5074733;28;20463;-72
2021/12/07 15:10:13;;;;;;;8.30;4.30;;;;;;;;;;5074760;28;20877;-72
2021/12/07 15:12:40;;;;;;;15.63;5.10;;;;;;;;;;5074758;28;20540;-73
2021/12/07 15:15:10;;;;;;;5.53;4.60;;;;;;;;;;5074449;28;20488;-73
2021/12/07 15:17:38;;;;;;;8.63;4.90;;;;;;;;;;5074483;28;20458;-73
2021/12/07 15:20:07;;;;;;;11.00;6.60;;;;;;;;;;5074738;28;20452;-72
2021/12/07 15:22:34;;;;;;;9.67;5.80;;;;;;;;;;5074448;28;20451;-72
2021/12/07 15:25:01;;;;;;;16.37;9.20;;;;;;;;;;5074327;28;20455;-72
2021/12/07 15:27:29;;;;;;;13.43;7.10;;;;;;;;;;5074510;28;20458;-72
2021/12/07 15:29:57;;;;;;;8.87;6.10;;;;;;;;;;5074258;28;20455;-72
2021/12/07 15:32:25;;;;;;;10.70;5.70;;;;;;;;;;5074425;28;20454;-72
2021/12/07 15:34:54;;;;;;;11.50;7.33;;;;;;;;;;5074400;28;20562;-72
2021/12/07 15:37:22;;;;;;;8.47;6.60;;;;;;;;;;5074076;28;20961;-72
2021/12/07 15:39:51;;;;;;;12.40;7.70;;;;;;;;;;5074166;28;20459;-72
2021/12/07 15:42:20;;;;;;;13.97;8.07;;;;;;;;;;5074308;28;20476;-72
2021/12/07 15:44:52;;;;;;;9.60;6.70;;;;;;;;;;5070255;28;20503;-73
2021/12/07 15:47:20;;;;;;;8.50;5.90;;;;;;;;;;5072232;28;20467;-73
2021/12/07 15:49:51;;;;;;;8.50;6.50;;;;;;;;;;5072398;28;20467;-72
2021/12/07 15:52:18;;;;;;;18.13;8.93;;;;;;;;;;5072005;28;20479;-72
2021/12/07 15:54:54;;;;;;;14.67;8.07;;;;;;;;;;5072105;28;20487;-72
2021/12/07 15:57:21;;;;;;;8.83;7.10;;;;;;;;;;5072153;28;20478;-72
2021/12/07 15:59:56;;;;;;;12.50;8.20;;;;;;;;;;5071958;28;20995;-72
2021/12/07 16:02:24;;;;;;;28.40;15.40;;;;;;;;;;5072177;28;20474;-72
2021/12/07 16:04:52;;;;;;;22.77;12.47;;;;;;;;;;5071915;28;20463;-73